New Albany, Indiana
Current Conditions -  °F | °C
As of 3:56 AM on Sunday 26 Oct 2014 (Local Time) from KSDF Reporting Station
Clear Clear  
Wind Chill: 53°   Ceiling: Unl
Heat Index: 53°   Visibility: 10mi
Dew Point: 50°   Wind: 8mph
Humidity: 89%   Direction: 300°WNW
Pressure: 29.99"   Gusts: NA
Location:  38.29°N, 85.82°W
Report Text: KSDF 260756Z 30007KT 10SM CLR 12/10 A2999 RMK AO2 SLP151 T01170100
Loading
Personal Weather Stations






























Interactive Weather Map
Tropical Storm Tracking
New forecast layout! Learn more

10-Day Weather Forecast

Advertisements
Track Severe Weather on mobile